createdAt,value
2023-04-20T00:01:42.527Z,90.10
2023-04-20T00:04:09.446Z,90.20
2023-04-20T00:06:36.320Z,90.30
2023-04-20T00:09:04.813Z,90.30
2023-04-20T00:11:31.424Z,90.30
2023-04-20T00:13:58.901Z,90.30
2023-04-20T00:16:25.599Z,90.30
2023-04-20T00:18:52.551Z,90.40
2023-04-20T00:21:26.329Z,90.30
2023-04-20T00:23:53.093Z,90.50
2023-04-20T00:26:20.165Z,90.40
2023-04-20T00:28:46.817Z,90.50
2023-04-20T00:31:15.547Z,90.10
2023-04-20T00:33:42.405Z,90.10
2023-04-20T00:36:09.664Z,90.20
2023-04-20T00:38:37.498Z,90.00
2023-04-20T00:41:04.468Z,90.10
2023-04-20T00:43:31.311Z,90.00
2023-04-20T00:45:58.033Z,90.00
2023-04-20T00:48:25.039Z,90.00
2023-04-20T00:50:53.418Z,90.10
2023-04-20T00:53:21.703Z,90.10
2023-04-20T00:55:54.000Z,90.10
2023-04-20T00:58:21.639Z,90.30
2023-04-20T01:00:49.523Z,90.10
2023-04-20T01:03:18.767Z,90.00
2023-04-20T01:05:47.527Z,90.00
2023-04-20T01:08:14.399Z,89.80
2023-04-20T01:10:41.487Z,89.80
2023-04-20T01:13:08.131Z,89.80
2023-04-20T01:15:36.506Z,89.80
2023-04-20T01:18:03.616Z,89.80
2023-04-20T01:20:30.954Z,89.90
2023-04-20T01:22:57.833Z,89.90
2023-04-20T01:25:24.645Z,89.80
2023-04-20T01:27:52.516Z,89.80
2023-04-20T01:30:19.574Z,89.90
2023-04-20T01:32:46.862Z,89.90
2023-04-20T01:35:13.835Z,89.90
2023-04-20T01:37:40.844Z,89.70
2023-04-20T01:40:11.256Z,89.60
2023-04-20T01:42:39.357Z,89.60
2023-04-20T01:45:06.500Z,89.70
2023-04-20T01:47:33.853Z,89.40
2023-04-20T01:50:00.513Z,89.20
2023-04-20T01:52:27.401Z,89.30
2023-04-20T01:54:53.985Z,89.10
2023-04-20T01:57:20.953Z,89.00
2023-04-20T01:59:47.573Z,88.70
2023-04-20T02:02:14.534Z,88.60
2023-04-20T02:04:41.176Z,88.70
2023-04-20T02:07:07.829Z,88.90
2023-04-20T02:09:34.587Z,88.90
2023-04-20T02:12:02.116Z,88.90
2023-04-20T02:14:29.027Z,88.80
2023-04-20T02:16:57.206Z,88.70
2023-04-20T02:19:25.455Z,88.80
2023-04-20T02:21:52.218Z,88.50
2023-04-20T02:24:19.489Z,88.70
2023-04-20T02:26:46.131Z,88.70
2023-04-20T02:29:14.181Z,88.50
2023-04-20T02:31:42.004Z,88.60
2023-04-20T02:34:09.853Z,88.70
2023-04-20T02:36:36.663Z,88.90
2023-04-20T02:39:03.915Z,88.90
2023-04-20T02:41:34.480Z,88.80
2023-04-20T02:44:01.847Z,88.90
2023-04-20T02:46:28.879Z,88.90
2023-04-20T02:48:55.764Z,88.70
2023-04-20T02:51:23.660Z,88.50
2023-04-20T02:53:51.520Z,88.60
2023-04-20T02:56:18.480Z,88.60
2023-04-20T02:58:45.388Z,88.50
2023-04-20T03:01:12.118Z,88.40
2023-04-20T03:03:38.917Z,88.80
2023-04-20T03:06:06.057Z,88.70
2023-04-20T03:08:33.056Z,88.30
2023-04-20T03:10:59.890Z,88.20
2023-04-20T03:13:35.295Z,88.20
2023-04-20T03:16:02.147Z,88.30
2023-04-20T03:18:30.050Z,88.30
2023-04-20T03:20:59.020Z,88.60
2023-04-20T03:23:25.833Z,88.60
2023-04-20T03:25:52.466Z,88.50
2023-04-20T03:28:19.317Z,88.60
2023-04-20T03:30:45.982Z,88.40
2023-04-20T03:33:12.643Z,88.50
2023-04-20T03:35:39.646Z,88.40
2023-04-20T03:38:06.644Z,88.60
2023-04-20T03:40:35.951Z,88.60
2023-04-20T03:43:02.600Z,88.60
2023-04-20T03:45:29.322Z,88.60
2023-04-20T03:47:56.340Z,88.50
2023-04-20T03:50:23.980Z,88.40
2023-04-20T03:52:52.116Z,88.50
2023-04-20T03:55:18.752Z,88.70
2023-04-20T03:57:45.961Z,88.80
2023-04-20T04:00:12.854Z,88.90
2023-04-20T04:02:39.878Z,88.70
2023-04-20T04:05:07.998Z,88.90
2023-04-20T04:07:37.079Z,88.80
2023-04-20T04:10:05.820Z,88.70
2023-04-20T04:12:33.022Z,88.70
2023-04-20T04:14:59.699Z,88.40
2023-04-20T04:17:26.525Z,88.50
2023-04-20T04:19:53.176Z,88.50
2023-04-20T04:22:20.006Z,88.70
2023-04-20T04:24:46.634Z,88.90
2023-04-20T04:27:15.736Z,88.80
2023-04-20T04:29:42.616Z,88.80
2023-04-20T04:32:10.048Z,88.80
2023-04-20T04:34:37.721Z,88.90
2023-04-20T04:37:04.403Z,88.60
2023-04-20T04:39:31.090Z,88.80
2023-04-20T04:41:58.783Z,88.50
2023-04-20T04:44:28.943Z,88.60
2023-04-20T04:46:55.640Z,89.00
2023-04-20T04:49:24.423Z,88.90
2023-04-20T04:51:51.057Z,88.50
2023-04-20T04:54:19.113Z,88.90
2023-04-20T04:56:45.844Z,88.80
2023-04-20T04:59:12.555Z,88.80
2023-04-20T05:01:39.276Z,88.90
2023-04-20T05:04:06.348Z,89.10
2023-04-20T05:06:33.465Z,88.50
2023-04-20T05:09:00.050Z,88.70
2023-04-20T05:11:28.015Z,88.90
2023-04-20T05:13:54.993Z,88.40
2023-04-20T05:16:21.588Z,88.50
2023-04-20T05:18:48.829Z,88.60
2023-04-20T05:21:16.386Z,88.30
2023-04-20T05:23:44.328Z,88.00
2023-04-20T05:26:13.280Z,87.80
2023-04-20T05:28:39.979Z,87.30
2023-04-20T05:31:08.033Z,87.50
2023-04-20T05:33:34.853Z,87.40
2023-04-20T05:36:01.688Z,87.70
2023-04-20T05:38:29.333Z,87.70
2023-04-20T05:40:56.349Z,87.90
2023-04-20T05:43:22.973Z,88.10
2023-04-20T05:45:52.049Z,87.90
2023-04-20T05:48:19.988Z,87.60
2023-04-20T05:50:46.800Z,87.80
2023-04-20T05:53:13.503Z,87.90
2023-04-20T05:55:40.316Z,87.40
2023-04-20T05:58:06.945Z,87.40
2023-04-20T06:00:37.000Z,87.60
2023-04-20T06:03:07.378Z,87.50
2023-04-20T06:05:35.297Z,87.10
2023-04-20T06:08:02.759Z,87.30
2023-04-20T06:10:32.583Z,87.20
2023-04-20T06:12:59.270Z,87.20
2023-04-20T06:15:25.835Z,86.70
2023-04-20T06:17:52.598Z,87.20
2023-04-20T06:20:20.395Z,87.40
2023-04-20T06:22:47.504Z,86.70
2023-04-20T06:25:16.090Z,86.70
2023-04-20T06:27:43.146Z,86.20
2023-04-20T06:30:10.365Z,86.80
2023-04-20T06:32:38.308Z,86.50
2023-04-20T06:35:05.951Z,86.80
2023-04-20T06:37:33.195Z,87.70
2023-04-20T06:39:59.878Z,86.90
2023-04-20T06:42:28.675Z,86.70
2023-04-20T06:44:56.737Z,86.30
2023-04-20T06:47:23.474Z,86.50
2023-04-20T06:49:50.355Z,86.50
2023-04-20T06:52:17.244Z,87.30
2023-04-20T06:54:45.373Z,87.10
2023-04-20T06:57:13.302Z,86.90
2023-04-20T06:59:40.202Z,86.10
2023-04-20T07:02:14.722Z,86.10
2023-04-20T07:04:41.751Z,86.60
2023-04-20T07:07:08.685Z,86.20
2023-04-20T07:09:35.703Z,86.20
2023-04-20T07:12:02.849Z,86.60
2023-04-20T07:14:29.522Z,86.60
2023-04-20T07:16:57.367Z,86.70
2023-04-20T07:19:25.210Z,86.40
2023-04-20T07:21:53.203Z,86.60
2023-04-20T07:24:19.827Z,86.20
2023-04-20T07:26:46.773Z,85.80
2023-04-20T07:29:13.498Z,85.60
2023-04-20T07:31:40.397Z,86.20
2023-04-20T07:34:09.562Z,85.90
2023-04-20T07:36:39.577Z,85.60
2023-04-20T07:39:07.070Z,85.70
2023-04-20T07:41:33.947Z,85.60
2023-04-20T07:44:03.606Z,85.80
2023-04-20T07:46:31.340Z,85.50
2023-04-20T07:49:02.977Z,85.60
2023-04-20T07:51:30.831Z,85.30
2023-04-20T07:53:57.471Z,85.80
2023-04-20T07:58:52.734Z,86.20
2023-04-20T08:01:25.665Z,85.70
2023-04-20T08:03:58.077Z,84.80
2023-04-20T08:06:25.763Z,85.20
2023-04-20T08:08:53.057Z,84.70
2023-04-20T08:11:19.849Z,84.50
2023-04-20T08:13:46.546Z,84.40
2023-04-20T08:16:13.583Z,84.10
2023-04-20T08:18:40.696Z,84.10
2023-04-20T08:21:08.585Z,83.70
2023-04-20T08:23:35.635Z,82.80
2023-04-20T08:26:06.076Z,83.90
2023-04-20T08:28:34.194Z,83.90
2023-04-20T08:31:01.321Z,83.30
2023-04-20T08:33:28.219Z,83.20
2023-04-20T08:35:55.196Z,83.50
2023-04-20T08:38:33.837Z,82.60
2023-04-20T08:41:01.322Z,82.00
2023-04-20T08:43:29.681Z,82.90
2023-04-20T08:46:00.320Z,81.80
2023-04-20T08:48:33.161Z,81.90
2023-04-20T08:51:01.112Z,80.90
2023-04-20T08:53:28.176Z,81.70
2023-04-20T08:55:59.540Z,81.40
2023-04-20T08:58:30.067Z,80.70
2023-04-20T09:00:57.254Z,80.30
2023-04-20T09:03:47.391Z,81.00
2023-04-20T09:06:18.175Z,80.10
2023-04-20T09:08:46.360Z,80.60
2023-04-20T09:11:22.836Z,80.50
2023-04-20T09:13:59.127Z,78.70
2023-04-20T09:16:27.277Z,79.10
2023-04-20T09:18:55.189Z,78.90
2023-04-20T09:21:22.206Z,79.70
2023-04-20T09:24:08.384Z,80.00
2023-04-20T09:26:36.115Z,79.70
2023-04-20T09:29:04.608Z,80.10
2023-04-20T09:31:31.300Z,80.90
2023-04-20T09:34:04.348Z,79.90
2023-04-20T09:36:50.253Z,79.40
2023-04-20T09:39:28.581Z,79.70
2023-04-20T09:41:58.998Z,80.00
2023-04-20T09:44:25.929Z,79.70
2023-04-20T09:46:53.154Z,79.60
2023-04-20T09:49:22.789Z,79.70
2023-04-20T09:51:55.739Z,79.70
2023-04-20T09:54:22.762Z,79.50
2023-04-20T09:56:49.775Z,79.50
2023-04-20T09:59:17.394Z,80.20
2023-04-20T10:01:44.150Z,80.40
2023-04-20T10:04:14.125Z,80.50
2023-04-20T10:06:52.249Z,80.00
2023-04-20T10:09:25.637Z,79.30
2023-04-20T10:11:55.156Z,79.60
2023-04-20T10:14:24.369Z,79.30
2023-04-20T10:17:01.972Z,79.70
2023-04-20T10:19:41.827Z,80.10
2023-04-20T10:22:10.674Z,80.30
2023-04-20T10:24:40.565Z,80.00
2023-04-20T10:27:17.938Z,79.60
2023-04-20T10:29:45.847Z,79.60
2023-04-20T10:32:25.019Z,80.50
2023-04-20T10:35:06.500Z,80.50
2023-04-20T10:37:33.804Z,80.90
2023-04-20T10:40:00.545Z,80.30
2023-04-20T10:42:27.432Z,80.20
2023-04-20T10:44:55.390Z,81.30
2023-04-20T10:47:29.932Z,80.80
2023-04-20T10:50:10.099Z,80.80
2023-04-20T10:52:38.445Z,80.20
2023-04-20T10:55:06.946Z,80.20
2023-04-20T10:57:35.964Z,80.50
2023-04-20T11:00:13.592Z,80.70
2023-04-20T11:02:46.295Z,80.30
2023-04-20T11:05:15.556Z,80.00
2023-04-20T11:07:55.498Z,80.80
2023-04-20T11:10:24.788Z,80.50
2023-04-20T11:12:51.955Z,80.60
2023-04-20T11:15:18.797Z,80.90
2023-04-20T11:17:46.818Z,81.20
2023-04-20T11:20:17.098Z,81.10
2023-04-20T11:22:44.172Z,81.30
2023-04-20T11:25:16.630Z,81.30
2023-04-20T11:27:45.837Z,81.40
2023-04-20T11:30:13.446Z,81.10
2023-04-20T11:32:41.778Z,81.80
2023-04-20T11:35:11.355Z,81.90
2023-04-20T11:37:55.491Z,81.30
2023-04-20T11:40:28.063Z,81.50
2023-04-20T11:42:55.417Z,80.70
2023-04-20T11:45:23.849Z,80.70
2023-04-20T11:47:51.199Z,80.70
2023-04-20T11:50:18.749Z,80.10
2023-04-20T11:52:45.358Z,79.70
2023-04-20T11:55:13.656Z,79.70
2023-04-20T11:57:40.474Z,79.60
2023-04-20T12:00:08.480Z,79.10
2023-04-20T12:02:35.294Z,79.10
2023-04-20T12:05:02.423Z,78.70
2023-04-20T12:07:29.354Z,78.20
2023-04-20T12:09:55.932Z,77.90
2023-04-20T12:12:23.640Z,78.00
2023-04-20T12:14:50.563Z,76.90
2023-04-20T12:17:17.390Z,77.00
2023-04-20T12:19:44.083Z,76.90
2023-04-20T12:22:11.746Z,76.50
2023-04-20T12:24:38.607Z,76.90
2023-04-20T12:27:06.259Z,76.40
2023-04-20T12:29:33.157Z,76.50
2023-04-20T12:32:01.443Z,76.80
2023-04-20T12:34:28.352Z,76.10
2023-04-20T12:36:55.048Z,75.80
2023-04-20T12:39:23.061Z,74.90
2023-04-20T12:41:50.996Z,74.20
2023-04-20T12:44:20.165Z,72.80
2023-04-20T12:46:47.512Z,72.10
2023-04-20T12:49:14.311Z,73.40
2023-04-20T12:51:41.249Z,72.60
2023-04-20T12:54:08.493Z,73.40
2023-04-20T12:56:36.121Z,73.30
2023-04-20T12:59:03.434Z,71.80
2023-04-20T13:01:30.233Z,71.00
2023-04-20T13:03:58.007Z,73.20
2023-04-20T13:06:24.791Z,69.70
2023-04-20T13:08:51.703Z,69.60
2023-04-20T13:11:22.292Z,69.10
2023-04-20T13:13:49.934Z,67.10
2023-04-20T13:16:16.727Z,67.40
2023-04-20T13:18:46.405Z,67.60
2023-04-20T13:21:14.468Z,67.80
2023-04-20T13:23:41.199Z,67.70
2023-04-20T13:26:10.097Z,68.00
2023-04-20T13:28:37.982Z,68.40
2023-04-20T13:31:04.788Z,68.60
2023-04-20T13:33:32.578Z,68.70
2023-04-20T13:35:59.355Z,69.20
2023-04-20T13:38:28.294Z,68.60
2023-04-20T13:40:56.064Z,68.70
2023-04-20T13:43:22.712Z,68.40
2023-04-20T13:45:50.012Z,68.20
2023-04-20T13:48:17.409Z,67.30
2023-04-20T13:50:46.789Z,67.20
2023-04-20T13:53:13.611Z,67.20
2023-04-20T13:55:43.993Z,67.20
2023-04-20T13:58:11.714Z,67.10
2023-04-20T14:00:38.375Z,68.60
2023-04-20T14:03:07.573Z,67.50
2023-04-20T14:05:34.381Z,67.30
2023-04-20T14:08:01.908Z,67.60
2023-04-20T14:10:28.891Z,66.90
2023-04-20T14:12:55.594Z,67.70
2023-04-20T14:15:23.294Z,66.80
2023-04-20T14:17:54.579Z,65.50
2023-04-20T14:20:23.948Z,66.00
2023-04-20T14:22:53.679Z,65.20
2023-04-20T14:25:21.119Z,64.60
2023-04-20T14:27:48.036Z,64.30
2023-04-20T14:30:14.821Z,64.50
2023-04-20T14:32:41.603Z,64.20
2023-04-20T14:35:09.162Z,64.10
2023-04-20T14:37:35.884Z,64.80
2023-04-20T14:40:03.417Z,64.10
2023-04-20T14:42:33.291Z,65.40
2023-04-20T14:45:00.238Z,65.30
2023-04-20T14:47:26.917Z,64.40
2023-04-20T14:49:55.335Z,65.00
2023-04-20T14:52:22.870Z,64.60
2023-04-20T14:54:49.715Z,64.60
2023-04-20T14:57:16.312Z,64.30
2023-04-20T14:59:43.151Z,64.00
2023-04-20T15:02:10.025Z,64.30
2023-04-20T15:04:41.835Z,64.70
2023-04-20T15:07:10.189Z,64.80
2023-04-20T15:09:36.787Z,64.70
2023-04-20T15:12:04.195Z,65.10
2023-04-20T15:14:32.471Z,64.70
2023-04-20T15:16:59.619Z,65.20
2023-04-20T15:19:26.387Z,64.70
2023-04-20T15:21:53.072Z,65.10
2023-04-20T15:24:20.233Z,65.90
2023-04-20T15:26:47.050Z,65.10
2023-04-20T15:29:13.911Z,65.80
2023-04-20T15:31:45.805Z,66.10
2023-04-20T15:34:15.331Z,66.00
2023-04-20T15:36:45.359Z,66.40
2023-04-20T15:39:13.021Z,66.90
2023-04-20T15:41:39.880Z,65.90
2023-04-20T15:44:07.800Z,66.70
2023-04-20T15:46:38.393Z,66.80
2023-04-20T15:49:05.240Z,66.90
2023-04-20T15:51:42.648Z,67.70
2023-04-20T15:54:10.549Z,66.60
2023-04-20T15:56:37.674Z,67.10
2023-04-20T15:59:05.409Z,67.40
2023-04-20T16:01:33.003Z,67.20
2023-04-20T16:04:01.438Z,67.60
2023-04-20T16:06:28.164Z,67.80
2023-04-20T16:08:55.593Z,69.00
2023-04-20T16:11:22.292Z,68.40
2023-04-20T16:13:50.528Z,68.50
2023-04-20T16:16:17.254Z,68.70
2023-04-20T16:18:45.265Z,68.60
2023-04-20T16:21:12.151Z,69.00
2023-04-20T16:23:39.188Z,69.20
2023-04-20T16:26:06.349Z,69.20
2023-04-20T16:28:34.598Z,69.70
2023-04-20T16:31:03.670Z,70.00
2023-04-20T16:33:32.279Z,69.70
2023-04-20T16:36:01.597Z,69.60
2023-04-20T16:38:29.752Z,69.60
2023-04-20T16:41:01.251Z,69.90
2023-04-20T16:43:28.152Z,70.00
2023-04-20T16:45:56.258Z,69.90
2023-04-20T16:48:24.858Z,70.30
2023-04-20T16:50:51.786Z,70.20
2023-04-20T16:53:18.662Z,70.50
2023-04-20T16:55:47.839Z,70.50
2023-04-20T16:58:14.457Z,71.00
2023-04-20T17:00:43.516Z,70.70
2023-04-20T17:03:13.300Z,70.50
2023-04-20T17:05:42.748Z,70.90
2023-04-20T17:08:09.457Z,70.40
2023-04-20T17:10:37.932Z,70.70
2023-04-20T17:13:06.885Z,70.80
2023-04-20T17:15:33.634Z,70.80
2023-04-20T17:18:00.517Z,70.90
2023-04-20T17:20:29.530Z,71.20
2023-04-20T17:22:56.150Z,70.80
2023-04-20T17:25:23.684Z,71.30
2023-04-20T17:27:52.942Z,71.20
2023-04-20T17:30:22.917Z,71.70
2023-04-20T17:32:49.804Z,71.80
2023-04-20T17:35:18.067Z,71.80
2023-04-20T17:37:44.962Z,71.90
2023-04-20T17:40:11.768Z,72.10
2023-04-20T17:42:39.673Z,72.30
2023-04-20T17:45:06.701Z,72.50
2023-04-20T17:47:33.870Z,72.90
2023-04-20T17:50:01.871Z,73.00
2023-04-20T17:52:29.964Z,73.50
2023-04-20T17:54:57.629Z,74.10
2023-04-20T17:57:24.207Z,73.80
2023-04-20T17:59:53.489Z,74.30
2023-04-20T18:02:21.835Z,74.30
2023-04-20T18:04:49.837Z,74.80
2023-04-20T18:07:17.751Z,75.10
2023-04-20T18:09:46.495Z,75.40
2023-04-20T18:12:16.679Z,75.70
2023-04-20T18:14:44.102Z,76.10
2023-04-20T18:17:13.675Z,76.10
2023-04-20T18:19:44.586Z,76.40
2023-04-20T18:22:11.520Z,76.80
2023-04-20T18:24:39.766Z,76.80
2023-04-20T18:27:07.469Z,76.90
2023-04-20T18:29:35.011Z,78.00
2023-04-20T18:32:04.938Z,78.20
2023-04-20T18:34:32.232Z,78.50
2023-04-20T18:37:01.566Z,79.30
2023-04-20T18:39:28.279Z,79.30
2023-04-20T18:41:54.938Z,79.80
2023-04-20T18:44:22.216Z,80.40
2023-04-20T18:46:49.660Z,80.40
2023-04-20T18:49:16.700Z,80.10
2023-04-20T18:51:43.709Z,80.30
2023-04-20T18:54:10.487Z,80.90
2023-04-20T18:56:38.840Z,80.50
2023-04-20T18:59:06.104Z,81.50
2023-04-20T19:01:33.587Z,81.50
2023-04-20T19:04:02.448Z,82.60
2023-04-20T19:06:32.748Z,82.60
2023-04-20T19:08:59.367Z,82.00
2023-04-20T19:11:26.729Z,82.30
2023-04-20T19:13:53.653Z,81.90
2023-04-20T19:16:20.754Z,81.90
2023-04-20T19:18:51.501Z,82.50
2023-04-20T19:21:22.231Z,82.80
2023-04-20T19:23:52.163Z,82.70
2023-04-20T19:26:19.430Z,83.10
2023-04-20T19:28:46.138Z,83.50
2023-04-20T19:31:20.521Z,83.80
2023-04-20T19:33:51.848Z,83.50
2023-04-20T19:36:19.750Z,83.20
2023-04-20T19:38:46.678Z,83.40
2023-04-20T19:41:13.383Z,83.50
2023-04-20T19:43:41.838Z,84.10
2023-04-20T19:46:09.741Z,84.10
2023-04-20T19:48:38.349Z,84.40
2023-04-20T19:51:06.766Z,85.20
2023-04-20T19:53:33.701Z,84.20
2023-04-20T19:56:00.406Z,84.30
2023-04-20T19:58:27.032Z,84.00
2023-04-20T20:00:54.273Z,84.20
2023-04-20T20:03:21.361Z,84.30
2023-04-20T20:05:48.604Z,84.60
2023-04-20T20:08:16.855Z,84.70
2023-04-20T20:10:43.741Z,85.30
2023-04-20T20:13:13.255Z,84.60
2023-04-20T20:15:40.841Z,84.80
2023-04-20T20:18:08.043Z,84.60
2023-04-20T20:20:40.999Z,84.70
2023-04-20T20:23:08.107Z,84.60
2023-04-20T20:25:35.333Z,84.80
2023-04-20T20:28:04.386Z,85.10
2023-04-20T20:30:35.118Z,85.50
2023-04-20T20:33:03.206Z,85.60
2023-04-20T20:35:33.524Z,86.40
2023-04-20T20:38:00.677Z,86.10
2023-04-20T20:40:27.574Z,86.50
2023-04-20T20:42:54.941Z,86.40
2023-04-20T20:45:22.750Z,86.40
2023-04-20T20:48:02.595Z,86.10
2023-04-20T20:50:30.590Z,86.10
2023-04-20T20:52:57.453Z,85.60
2023-04-20T20:55:25.667Z,85.70
2023-04-20T20:58:01.433Z,85.80
2023-04-20T21:00:28.186Z,86.30
2023-04-20T21:02:55.391Z,86.20
2023-04-20T21:05:25.499Z,86.00
2023-04-20T21:07:52.080Z,86.30
2023-04-20T21:10:19.007Z,86.40
2023-04-20T21:12:48.879Z,86.20
2023-04-20T21:15:15.630Z,86.20
2023-04-20T21:17:42.233Z,86.20
2023-04-20T21:20:09.422Z,86.20
2023-04-20T21:22:41.897Z,86.00
2023-04-20T21:25:09.904Z,86.20
2023-04-20T21:27:36.660Z,86.10
2023-04-20T21:30:05.105Z,86.30
2023-04-20T21:32:31.752Z,85.80
2023-04-20T21:34:58.374Z,85.90
2023-04-20T21:37:29.110Z,85.70
2023-04-20T21:39:55.763Z,85.60
2023-04-20T21:42:22.637Z,85.60
2023-04-20T21:44:49.274Z,85.70
2023-04-20T21:47:16.217Z,85.70
2023-04-20T21:49:43.847Z,85.50
2023-04-20T21:52:11.184Z,85.30
2023-04-20T21:54:40.480Z,85.40
2023-04-20T21:57:07.190Z,85.70
2023-04-20T21:59:34.234Z,85.70
2023-04-20T22:02:02.015Z,85.70
2023-04-20T22:04:29.495Z,85.70
2023-04-20T22:06:57.967Z,85.90
2023-04-20T22:09:24.641Z,86.00
2023-04-20T22:11:51.878Z,85.80
2023-04-20T22:14:18.553Z,85.70
2023-04-20T22:16:46.725Z,85.70
2023-04-20T22:19:19.306Z,85.80
2023-04-20T22:21:47.844Z,85.70
2023-04-20T22:24:14.677Z,85.70
2023-04-20T22:26:43.977Z,85.30
2023-04-20T22:29:10.782Z,85.30
2023-04-20T22:31:38.085Z,85.30
2023-04-20T22:34:05.038Z,84.90
2023-04-20T22:36:33.059Z,85.10
2023-04-20T22:39:00.276Z,85.30
2023-04-20T22:41:28.497Z,85.20
2023-04-20T22:43:55.327Z,84.90
2023-04-20T22:46:26.198Z,84.90
2023-04-20T22:48:54.150Z,85.10
2023-04-20T22:51:23.266Z,85.20
2023-04-20T22:53:49.842Z,85.50
2023-04-20T22:56:17.017Z,85.70
2023-04-20T22:58:43.574Z,85.70
2023-04-20T23:01:10.489Z,85.30
2023-04-20T23:03:37.693Z,85.50
2023-04-20T23:06:07.493Z,85.30
2023-04-20T23:08:39.697Z,85.00
2023-04-20T23:11:06.956Z,85.40
2023-04-20T23:13:34.602Z,85.50
2023-04-20T23:16:01.579Z,85.30
2023-04-20T23:18:28.245Z,85.10
2023-04-20T23:20:56.967Z,85.00
2023-04-20T23:23:23.700Z,85.10
2023-04-20T23:25:51.656Z,85.60
2023-04-20T23:28:21.173Z,85.30
2023-04-20T23:30:48.212Z,85.20
2023-04-20T23:33:16.661Z,85.30
2023-04-20T23:35:45.617Z,85.40
2023-04-20T23:38:13.862Z,85.20
2023-04-20T23:40:42.121Z,85.20
2023-04-20T23:43:08.751Z,85.30
2023-04-20T23:45:37.010Z,85.70
2023-04-20T23:48:03.937Z,85.60
2023-04-20T23:50:30.942Z,85.70
2023-04-20T23:52:58.769Z,85.80
2023-04-20T23:55:26.999Z,85.90
2023-04-20T23:57:55.245Z,85.70
